Pointe-des-Monts, Canada
Current Conditions -  °F | °C
As of 10:00 PM on Sunday 21 Dec 2014 (Local Time) from CYBC Reporting Station
Light Snow Light Snow  
Wind Chill: 19°   Ceiling: 1900
Heat Index: 19°   Visibility: 9mi
Dew Point: 14°   Wind: 3mph
Humidity: 80%   Direction: 320°NW
Pressure: 30.42"   Gusts: NA
Location:  49.32°N, 67.38°W
Report Text: CYBC 220300Z AUTO 32003KT 9SM -SN OVC019 M07/M10 A3042 RMK SLP303
Loading
Personal Weather Stations






























Interactive Weather Map New forecast layout! Learn more

10-Day Weather Forecast

Advertisements
Track Severe Weather on mobile